createdAt,value
2023-05-08T00:01:58.295Z,5.50
2023-05-08T00:04:28.202Z,5.60
2023-05-08T00:06:56.418Z,5.60
2023-05-08T00:09:24.546Z,5.70
2023-05-08T00:11:53.017Z,5.70
2023-05-08T00:14:21.576Z,5.70
2023-05-08T00:16:49.777Z,5.70
2023-05-08T00:19:18.421Z,5.70
2023-05-08T00:21:48.111Z,5.70
2023-05-08T00:24:16.549Z,5.70
2023-05-08T00:26:45.790Z,5.70
2023-05-08T00:29:14.642Z,5.60
2023-05-08T00:31:42.912Z,5.60
2023-05-08T00:34:11.147Z,5.60
2023-05-08T00:36:39.629Z,5.60
2023-05-08T00:39:10.165Z,5.60
2023-05-08T00:41:38.400Z,5.50
2023-05-08T00:44:06.960Z,5.50
2023-05-08T00:46:35.464Z,5.50
2023-05-08T00:49:04.833Z,5.50
2023-05-08T00:51:33.999Z,5.40
2023-05-08T00:54:02.143Z,5.30
2023-05-08T00:56:33.346Z,5.30
2023-05-08T00:59:01.617Z,5.20
2023-05-08T01:01:30.858Z,5.10
2023-05-08T01:03:59.386Z,5.10
2023-05-08T01:06:27.717Z,4.90
2023-05-08T01:08:56.335Z,4.90
2023-05-08T01:11:26.209Z,4.70
2023-05-08T01:14:00.944Z,4.50
2023-05-08T01:16:33.635Z,4.40
2023-05-08T01:19:05.224Z,4.20
2023-05-08T01:21:47.113Z,4.10
2023-05-08T01:24:34.426Z,4.00
2023-05-08T01:27:20.238Z,3.80
2023-05-08T01:30:09.461Z,3.70
2023-05-08T01:32:40.379Z,3.60
2023-05-08T01:35:13.819Z,3.50
2023-05-08T01:37:43.847Z,3.40
2023-05-08T01:40:14.062Z,3.30
2023-05-08T01:42:46.336Z,3.20
2023-05-08T01:45:17.868Z,3.10
2023-05-08T01:47:51.172Z,3.00
2023-05-08T01:50:22.119Z,2.90
2023-05-08T01:52:52.716Z,2.80
2023-05-08T01:55:22.382Z,2.80
2023-05-08T01:57:52.046Z,2.70
2023-05-08T02:00:21.747Z,2.60
2023-05-08T02:02:51.902Z,2.50
2023-05-08T02:05:21.256Z,2.50
2023-05-08T02:07:50.506Z,2.40
2023-05-08T02:10:20.151Z,2.30
2023-05-08T02:12:49.925Z,2.30
2023-05-08T02:15:18.564Z,2.20
2023-05-08T02:17:48.288Z,2.20
2023-05-08T02:20:18.039Z,2.20
2023-05-08T02:22:46.974Z,2.10
2023-05-08T02:25:16.355Z,2.00
2023-05-08T02:27:46.861Z,1.90
2023-05-08T02:30:16.996Z,1.90
2023-05-08T02:32:46.239Z,1.90
2023-05-08T02:35:16.219Z,1.80
2023-05-08T02:37:46.762Z,1.80
2023-05-08T02:40:15.750Z,1.70
2023-05-08T02:42:44.182Z,1.70
2023-05-08T02:45:13.195Z,1.70
2023-05-08T02:47:44.963Z,1.70
2023-05-08T02:50:16.241Z,1.60
2023-05-08T02:52:47.026Z,1.60
2023-05-08T02:55:17.765Z,1.50
2023-05-08T02:57:49.033Z,1.50
2023-05-08T03:00:18.432Z,1.50
2023-05-08T03:02:49.336Z,1.50
2023-05-08T03:05:19.430Z,1.40
2023-05-08T03:07:51.208Z,1.30
2023-05-08T03:10:20.542Z,1.30
2023-05-08T03:12:50.834Z,1.30
2023-05-08T03:15:24.360Z,1.20
2023-05-08T03:17:54.379Z,1.20
2023-05-08T03:20:24.857Z,1.20
2023-05-08T03:22:54.504Z,1.20
2023-05-08T03:25:22.838Z,1.10
2023-05-08T03:27:51.478Z,1.20
2023-05-08T03:30:21.013Z,1.10
2023-05-08T03:32:50.172Z,1.10
2023-05-08T03:35:18.725Z,1.10
2023-05-08T03:37:47.054Z,1.10
2023-05-08T03:40:16.635Z,1.10
2023-05-08T03:42:45.214Z,1.10
2023-05-08T03:45:15.316Z,1.10
2023-05-08T03:47:44.923Z,1.10
2023-05-08T03:50:13.406Z,1.10
2023-05-08T03:52:42.160Z,1.10
2023-05-08T03:55:11.113Z,1.10
2023-05-08T03:57:42.064Z,1.10
2023-05-08T04:00:13.341Z,1.20
2023-05-08T04:02:45.245Z,1.20
2023-05-08T04:05:16.907Z,1.20
2023-05-08T04:07:49.050Z,1.20
2023-05-08T04:10:22.033Z,1.30
2023-05-08T04:12:56.270Z,1.30
2023-05-08T04:15:26.347Z,1.30
2023-05-08T04:17:55.575Z,1.40
2023-05-08T04:20:25.578Z,1.50
2023-05-08T04:22:54.630Z,1.50
2023-05-08T04:25:23.748Z,1.60
2023-05-08T04:27:55.050Z,1.70
2023-05-08T04:30:23.363Z,1.90
2023-05-08T04:32:51.688Z,2.10
2023-05-08T04:35:19.929Z,2.30
2023-05-08T04:37:48.610Z,2.50
2023-05-08T04:40:16.855Z,2.80
2023-05-08T04:42:47.610Z,3.00
2023-05-08T04:45:17.850Z,3.30
2023-05-08T04:47:46.424Z,3.60
2023-05-08T04:50:14.784Z,3.90
2023-05-08T04:52:43.248Z,4.10
2023-05-08T04:55:12.011Z,4.40
2023-05-08T04:57:40.372Z,4.60
2023-05-08T05:00:09.359Z,4.90
2023-05-08T05:02:38.969Z,5.10
2023-05-08T05:05:07.753Z,5.30
2023-05-08T05:07:35.982Z,5.50
2023-05-08T05:10:04.614Z,5.40
2023-05-08T05:12:33.016Z,5.50
2023-05-08T05:15:01.599Z,5.40
2023-05-08T05:17:31.566Z,5.50
2023-05-08T05:20:01.337Z,5.60
2023-05-08T05:22:29.694Z,5.60
2023-05-08T05:24:57.908Z,5.50
2023-05-08T05:27:26.716Z,5.60
2023-05-08T05:29:55.395Z,5.70
2023-05-08T05:32:24.035Z,5.80
2023-05-08T05:34:53.915Z,6.10
2023-05-08T05:37:23.884Z,6.40
2023-05-08T05:39:52.132Z,6.90
2023-05-08T05:42:20.714Z,7.30
2023-05-08T05:44:49.266Z,7.80
2023-05-08T05:47:17.429Z,8.20
2023-05-08T05:49:47.451Z,8.50
2023-05-08T05:52:15.983Z,8.70
2023-05-08T05:54:46.747Z,8.90
2023-05-08T05:57:15.305Z,9.10
2023-05-08T05:59:43.594Z,9.60
2023-05-08T06:02:16.526Z,9.90
2023-05-08T06:04:45.075Z,9.90
2023-05-08T06:07:13.411Z,10.20
2023-05-08T06:09:41.806Z,10.50
2023-05-08T06:12:12.007Z,10.70
2023-05-08T06:14:40.417Z,10.80
2023-05-08T06:17:08.867Z,10.80
2023-05-08T06:19:37.519Z,10.60
2023-05-08T06:22:06.263Z,10.30
2023-05-08T06:24:35.643Z,10.50
2023-05-08T06:27:04.017Z,10.90
2023-05-08T06:29:33.921Z,11.70
2023-05-08T06:32:02.575Z,12.00
2023-05-08T06:34:31.589Z,12.40
2023-05-08T06:36:59.750Z,12.70
2023-05-08T06:39:28.327Z,13.10
2023-05-08T06:41:56.878Z,13.10
2023-05-08T06:44:25.640Z,12.90
2023-05-08T06:46:56.127Z,12.90
2023-05-08T06:49:24.416Z,13.20
2023-05-08T06:51:52.809Z,12.80
2023-05-08T06:54:21.031Z,12.90
2023-05-08T06:56:49.230Z,13.20
2023-05-08T06:59:17.550Z,13.50
2023-05-08T07:01:46.087Z,14.10
2023-05-08T07:04:15.770Z,14.40
2023-05-08T07:06:44.008Z,14.70
2023-05-08T07:09:13.935Z,14.80
2023-05-08T07:11:42.485Z,14.30
2023-05-08T07:14:11.017Z,14.30
2023-05-08T07:16:39.260Z,14.10
2023-05-08T07:19:07.563Z,14.40
2023-05-08T07:21:37.309Z,14.70
2023-05-08T07:24:05.793Z,15.20
2023-05-08T07:26:34.043Z,15.30
2023-05-08T07:29:02.542Z,15.60
2023-05-08T07:31:30.933Z,15.70
2023-05-08T07:33:59.484Z,16.10
2023-05-08T07:36:28.326Z,16.00
2023-05-08T07:38:58.334Z,16.10
2023-05-08T07:41:27.120Z,16.80
2023-05-08T07:43:55.455Z,17.00
2023-05-08T07:46:24.215Z,17.10
2023-05-08T07:48:52.523Z,16.60
2023-05-08T07:51:20.995Z,16.00
2023-05-08T07:53:51.153Z,16.60
2023-05-08T07:56:21.865Z,17.00
2023-05-08T07:58:50.061Z,17.10
2023-05-08T08:01:18.470Z,17.30
2023-05-08T08:03:46.841Z,17.50
2023-05-08T08:06:15.341Z,17.80
2023-05-08T08:08:43.747Z,17.50
2023-05-08T08:11:12.051Z,17.00
2023-05-08T08:13:41.907Z,17.20
2023-05-08T08:16:10.597Z,16.80
2023-05-08T08:18:39.064Z,17.10
2023-05-08T08:21:07.711Z,17.90
2023-05-08T08:23:36.562Z,18.50
2023-05-08T08:26:05.064Z,17.90
2023-05-08T08:28:33.418Z,18.00
2023-05-08T08:31:03.030Z,18.50
2023-05-08T08:33:32.054Z,18.60
2023-05-08T08:36:00.382Z,19.00
2023-05-08T08:38:28.521Z,18.80
2023-05-08T08:40:56.771Z,19.50
2023-05-08T08:43:24.993Z,19.40
2023-05-08T08:45:53.756Z,19.50
2023-05-08T08:48:27.577Z,19.50
2023-05-08T08:51:00.483Z,19.80
2023-05-08T08:53:32.608Z,19.70
2023-05-08T08:56:02.169Z,20.40
2023-05-08T08:58:33.816Z,20.80
2023-05-08T09:01:03.933Z,20.30
2023-05-08T09:03:34.201Z,21.10
2023-05-08T09:06:02.914Z,20.90
2023-05-08T09:08:32.712Z,20.40
2023-05-08T09:11:03.234Z,21.00
2023-05-08T09:13:31.682Z,21.10
2023-05-08T09:16:00.421Z,21.00
2023-05-08T09:18:28.828Z,20.70
2023-05-08T09:21:00.292Z,21.10
2023-05-08T09:23:28.694Z,20.60
2023-05-08T09:25:57.355Z,20.70
2023-05-08T09:28:26.141Z,21.60
2023-05-08T09:30:55.827Z,22.10
2023-05-08T09:33:25.308Z,23.10
2023-05-08T09:35:53.731Z,24.10
2023-05-08T09:38:37.830Z,23.40
2023-05-08T09:41:09.581Z,23.20
2023-05-08T09:43:38.382Z,23.10
2023-05-08T09:46:21.036Z,22.70
2023-05-08T09:48:49.387Z,22.50
2023-05-08T09:51:17.686Z,23.30
2023-05-08T09:53:47.767Z,23.20
2023-05-08T09:56:16.041Z,23.30
2023-05-08T09:58:44.715Z,23.20
2023-05-08T10:01:29.823Z,24.10
2023-05-08T10:03:58.601Z,25.00
2023-05-08T10:06:28.440Z,25.30
2023-05-08T10:09:11.886Z,25.30
2023-05-08T10:11:41.325Z,24.60
2023-05-08T10:14:09.917Z,25.80
2023-05-08T10:16:41.223Z,25.50
2023-05-08T10:19:13.667Z,25.60
2023-05-08T10:24:28.371Z,20.90
2023-05-08T10:27:07.752Z,18.90
2023-05-08T10:29:42.908Z,18.20
2023-05-08T10:32:11.929Z,17.70
2023-05-08T10:34:42.170Z,17.40
2023-05-08T10:37:11.185Z,17.20
2023-05-08T11:31:53.511Z,15.70
2023-05-08T11:34:47.578Z,18.50
2023-05-08T11:37:20.033Z,20.80
2023-05-08T11:39:49.166Z,21.20
2023-05-08T11:42:44.551Z,22.30
2023-05-08T11:45:15.334Z,23.70
2023-05-08T11:47:46.544Z,24.60
2023-05-08T11:50:15.490Z,25.30
2023-05-08T11:52:44.156Z,26.10
2023-05-08T11:55:15.675Z,26.00
2023-05-08T11:57:44.063Z,26.10
2023-05-08T12:00:13.796Z,25.10
2023-05-08T12:02:45.905Z,23.90
2023-05-08T12:05:14.464Z,24.60
2023-05-08T12:07:46.650Z,25.00
2023-05-08T12:10:16.318Z,24.80
2023-05-08T12:12:46.330Z,25.70
2023-05-08T12:15:16.196Z,25.40
2023-05-08T12:17:46.139Z,26.00
2023-05-08T12:20:16.304Z,26.80
2023-05-08T12:22:52.271Z,27.50
2023-05-08T12:25:20.994Z,27.20
2023-05-08T12:27:50.013Z,26.20
2023-05-08T12:30:19.233Z,25.60
2023-05-08T12:32:50.002Z,26.40
2023-05-08T12:35:18.926Z,26.00
2023-05-08T12:37:47.444Z,24.70
2023-05-08T12:40:27.930Z,25.00
2023-05-08T12:42:56.520Z,25.90
2023-05-08T12:45:28.016Z,25.50
2023-05-08T12:48:01.127Z,25.60
2023-05-08T12:50:31.046Z,26.20
2023-05-08T12:53:04.478Z,25.90
2023-05-08T12:55:35.485Z,26.70
2023-05-08T12:58:05.790Z,26.90
2023-05-08T13:00:41.537Z,27.40
2023-05-08T13:03:13.351Z,27.90
2023-05-08T13:05:44.113Z,26.00
2023-05-08T13:08:12.734Z,25.90
2023-05-08T13:10:51.469Z,26.40
2023-05-08T13:13:21.482Z,26.90
2023-05-08T13:15:51.153Z,27.40
2023-05-08T13:18:21.772Z,27.70
2023-05-08T13:20:50.210Z,26.80
2023-05-08T13:23:18.617Z,26.50
2023-05-08T13:25:47.154Z,27.40
2023-05-08T13:28:16.074Z,27.60
2023-05-08T13:30:44.690Z,26.20
2023-05-08T13:33:13.195Z,26.30
2023-05-08T13:35:43.013Z,26.70
2023-05-08T13:38:11.433Z,27.80
2023-05-08T13:40:39.965Z,26.30
2023-05-08T13:43:08.348Z,25.90
2023-05-08T13:45:36.901Z,25.50
2023-05-08T13:48:05.771Z,25.60
2023-05-08T13:50:34.191Z,24.60
2023-05-08T13:53:04.693Z,25.20
2023-05-08T13:55:33.483Z,25.10
2023-05-08T13:58:02.307Z,24.80
2023-05-08T14:00:30.844Z,23.80
2023-05-08T14:02:59.332Z,23.90
2023-05-08T14:05:27.875Z,23.90
2023-05-08T14:07:56.300Z,24.30
2023-05-08T14:10:26.210Z,25.10
2023-05-08T14:12:54.669Z,25.70
2023-05-08T14:15:26.873Z,25.20
2023-05-08T14:18:00.256Z,24.40
2023-05-08T14:20:28.774Z,24.10
2023-05-08T14:23:00.058Z,23.00
2023-05-08T14:25:31.136Z,23.40
2023-05-08T14:27:59.530Z,24.20
2023-05-08T14:30:28.065Z,24.30
2023-05-08T14:32:56.618Z,24.20
2023-05-08T14:35:25.045Z,23.80
2023-05-08T14:37:53.509Z,24.70
2023-05-08T14:40:24.417Z,25.10
2023-05-08T14:42:54.381Z,23.80
2023-05-08T14:45:22.730Z,24.60
2023-05-08T14:47:51.090Z,24.50
2023-05-08T14:50:19.654Z,24.70
2023-05-08T14:52:48.094Z,24.40
2023-05-08T14:55:20.556Z,24.40
2023-05-08T14:57:49.684Z,24.20
2023-05-08T15:00:21.260Z,24.00
2023-05-08T15:02:49.993Z,24.30
2023-05-08T15:05:20.158Z,24.20
2023-05-08T15:07:49.984Z,24.20
2023-05-08T15:10:18.432Z,24.50
2023-05-08T15:12:46.984Z,24.60
2023-05-08T15:15:15.693Z,24.50
2023-05-08T15:17:45.836Z,24.20
2023-05-08T15:20:14.391Z,23.80
2023-05-08T15:22:42.869Z,23.40
2023-05-08T15:25:11.925Z,23.30
2023-05-08T15:27:41.811Z,23.20
2023-05-08T15:30:11.254Z,22.90
2023-05-08T15:32:40.259Z,23.10
2023-05-08T15:35:10.578Z,23.10
2023-05-08T15:37:39.747Z,22.80
2023-05-08T15:40:09.266Z,22.70
2023-05-08T15:42:37.812Z,22.20
2023-05-08T15:45:06.900Z,21.90
2023-05-08T15:47:35.423Z,21.60
2023-05-08T15:50:03.850Z,21.60
2023-05-08T15:52:33.695Z,21.90
2023-05-08T15:55:02.578Z,22.10
2023-05-08T15:57:31.006Z,22.20
2023-05-08T15:59:59.594Z,22.00
2023-05-08T16:02:28.082Z,21.70
2023-05-08T16:04:56.585Z,21.60
2023-05-08T16:07:24.991Z,21.00
2023-05-08T16:09:54.791Z,20.90
2023-05-08T16:12:23.017Z,20.80
2023-05-08T16:14:51.338Z,20.80
2023-05-08T16:17:19.719Z,20.90
2023-05-08T16:19:48.134Z,20.90
2023-05-08T16:22:16.629Z,20.40
2023-05-08T16:24:45.079Z,19.50
2023-05-08T16:27:14.874Z,19.50
2023-05-08T16:29:43.133Z,19.10
2023-05-08T16:32:11.605Z,18.90
2023-05-08T16:34:40.017Z,18.80
2023-05-08T16:37:08.486Z,18.90
2023-05-08T16:39:36.886Z,18.80
2023-05-08T16:42:06.208Z,19.00
2023-05-08T16:44:36.417Z,19.10
2023-05-08T16:47:05.075Z,19.10
2023-05-08T16:49:33.654Z,18.80
2023-05-08T16:52:02.638Z,18.30
2023-05-08T16:54:31.115Z,18.20
2023-05-08T16:56:59.557Z,18.10
2023-05-08T16:59:28.025Z,17.90
2023-05-08T17:01:57.905Z,17.70
2023-05-08T17:04:26.159Z,17.30
2023-05-08T17:06:54.484Z,17.30
2023-05-08T17:09:25.184Z,17.50
2023-05-08T17:11:53.678Z,17.30
2023-05-08T17:14:22.158Z,17.10
2023-05-08T17:16:50.534Z,16.70
2023-05-08T17:19:20.367Z,16.50
2023-05-08T17:21:48.657Z,16.20
2023-05-08T17:24:17.149Z,16.20
2023-05-08T17:26:45.572Z,16.00
2023-05-08T17:29:14.007Z,15.90
2023-05-08T17:31:43.868Z,15.60
2023-05-08T17:34:12.142Z,15.50
2023-05-08T17:36:42.024Z,15.20
2023-05-08T17:39:11.383Z,15.00
2023-05-08T17:41:39.751Z,14.60
2023-05-08T17:44:08.184Z,14.30
2023-05-08T17:46:36.589Z,14.10
2023-05-08T17:49:05.043Z,14.00
2023-05-08T17:51:33.486Z,13.70
2023-05-08T17:54:03.215Z,13.60
2023-05-08T17:56:31.960Z,13.40
2023-05-08T17:59:00.611Z,13.20
2023-05-08T18:01:29.512Z,13.10
2023-05-08T18:03:58.128Z,12.90
2023-05-08T18:06:26.598Z,12.70
2023-05-08T18:08:55.014Z,12.60
2023-05-08T18:11:26.794Z,12.50
2023-05-08T18:13:55.686Z,12.40
2023-05-08T18:16:24.266Z,12.30
2023-05-08T18:18:53.087Z,12.20
2023-05-08T18:21:21.592Z,12.10
2023-05-08T18:23:50.044Z,12.00
2023-05-08T18:26:18.674Z,12.00
2023-05-08T18:28:48.485Z,11.90
2023-05-08T18:31:17.040Z,11.80
2023-05-08T18:33:45.858Z,11.70
2023-05-08T18:36:14.453Z,11.60
2023-05-08T18:38:42.902Z,11.50
2023-05-08T18:41:11.390Z,11.40
2023-05-08T18:43:39.790Z,11.40
2023-05-08T18:46:13.460Z,11.20
2023-05-08T18:48:42.218Z,11.10
2023-05-08T18:51:11.182Z,11.10
2023-05-08T18:53:40.658Z,11.00
2023-05-08T18:56:09.028Z,10.90
2023-05-08T18:58:37.470Z,10.90
2023-05-08T19:01:06.897Z,10.80
2023-05-08T19:03:36.778Z,10.70
2023-05-08T19:06:06.230Z,10.70
2023-05-08T19:08:34.888Z,10.60
2023-05-08T19:11:03.311Z,10.50
2023-05-08T19:13:31.763Z,10.40
2023-05-08T19:16:00.570Z,10.40
2023-05-08T19:18:30.203Z,10.30
2023-05-08T19:20:59.992Z,10.20
2023-05-08T19:23:28.474Z,10.20
2023-05-08T19:25:56.908Z,10.10
2023-05-08T19:28:25.291Z,10.10
2023-05-08T19:30:53.771Z,10.00
2023-05-08T19:33:22.283Z,10.00
2023-05-08T19:35:50.667Z,9.90
2023-05-08T19:38:20.478Z,9.80
2023-05-08T19:40:57.089Z,9.80
2023-05-08T19:43:26.809Z,9.80
2023-05-08T19:45:56.471Z,9.70
2023-05-08T19:48:25.224Z,9.70
2023-05-08T19:50:54.830Z,9.60
2023-05-08T19:53:25.561Z,9.60
2023-05-08T19:55:54.051Z,9.60
2023-05-08T19:58:22.483Z,9.50
2023-05-08T20:00:51.606Z,9.50
2023-05-08T20:03:20.850Z,9.40
2023-05-08T20:05:49.681Z,9.40
2023-05-08T20:08:18.358Z,9.30
2023-05-08T20:10:49.053Z,9.30
2023-05-08T20:13:18.001Z,9.20
2023-05-08T20:15:46.613Z,9.10
2023-05-08T20:18:15.113Z,9.00
2023-05-08T20:20:44.974Z,8.90
2023-05-08T20:23:13.268Z,8.90
2023-05-08T20:25:41.799Z,8.80
2023-05-08T20:28:11.658Z,8.70
2023-05-08T20:30:39.900Z,8.60
2023-05-08T20:33:08.279Z,8.50
2023-05-08T20:35:36.924Z,8.40
2023-05-08T20:38:05.371Z,8.30
2023-05-08T20:40:34.008Z,8.30
2023-05-08T20:43:02.495Z,8.10
2023-05-08T20:45:32.307Z,8.00
2023-05-08T20:48:00.803Z,7.90
2023-05-08T20:50:29.829Z,7.80
2023-05-08T20:52:58.500Z,7.70
2023-05-08T20:55:27.067Z,7.60
2023-05-08T20:57:55.954Z,7.50
2023-05-08T21:00:24.635Z,7.30
2023-05-08T21:02:54.807Z,7.20
2023-05-08T21:05:23.245Z,7.10
2023-05-08T21:07:55.842Z,6.90
2023-05-08T21:10:25.835Z,6.80
2023-05-08T21:12:54.255Z,6.60
2023-05-08T21:15:22.702Z,6.60
2023-05-08T21:17:51.481Z,6.50
2023-05-08T21:20:21.805Z,6.40
2023-05-08T21:22:50.308Z,6.30
2023-05-08T21:25:19.146Z,6.30
2023-05-08T21:27:47.578Z,6.20
2023-05-08T21:30:16.481Z,6.10
2023-05-08T21:32:46.147Z,6.00
2023-05-08T21:35:15.641Z,5.90
2023-05-08T21:37:45.731Z,5.90
2023-05-08T21:40:14.035Z,5.80
2023-05-08T21:42:42.349Z,5.70
2023-05-08T21:45:11.885Z,5.70
2023-05-08T21:47:40.449Z,5.70
2023-05-08T21:50:10.572Z,5.60
2023-05-08T21:52:39.067Z,5.50
2023-05-08T21:55:10.353Z,5.50
2023-05-08T21:57:38.804Z,5.40
2023-05-08T22:00:09.191Z,5.40
2023-05-08T22:02:37.735Z,5.30
2023-05-08T22:05:07.557Z,5.30
2023-05-08T22:07:35.849Z,5.20
2023-05-08T22:10:04.235Z,5.20
2023-05-08T22:12:33.923Z,5.20
2023-05-08T22:15:02.327Z,5.10
2023-05-08T22:17:30.821Z,5.10
2023-05-08T22:19:59.236Z,5.10
2023-05-08T22:22:27.633Z,5.10
2023-05-08T22:24:56.218Z,5.10
2023-05-08T22:27:24.583Z,5.00
2023-05-08T22:29:54.373Z,5.10
2023-05-08T22:32:22.617Z,5.10
2023-05-08T22:34:51.028Z,5.00
2023-05-08T22:37:19.738Z,5.00
2023-05-08T22:39:48.218Z,5.00
2023-05-08T22:42:16.920Z,4.90
2023-05-08T22:44:46.306Z,4.80
2023-05-08T22:47:16.457Z,4.70
2023-05-08T22:49:45.062Z,4.60
2023-05-08T22:52:13.458Z,4.60
2023-05-08T22:54:41.880Z,4.50
2023-05-08T22:57:10.294Z,4.50
2023-05-08T22:59:38.686Z,4.30
2023-05-08T23:02:07.082Z,4.30
2023-05-08T23:04:36.845Z,4.20
2023-05-08T23:07:05.400Z,4.20
2023-05-08T23:09:33.833Z,4.20
2023-05-08T23:12:02.247Z,4.30
2023-05-08T23:14:30.619Z,4.30
2023-05-08T23:16:59.118Z,4.20
2023-05-08T23:19:27.574Z,4.20
2023-05-08T23:21:57.363Z,4.20
2023-05-08T23:24:25.644Z,4.20
2023-05-08T23:26:53.975Z,4.20
2023-05-08T23:29:22.452Z,4.20
2023-05-08T23:31:50.948Z,4.20
2023-05-08T23:34:19.383Z,4.20
2023-05-08T23:36:47.796Z,4.20
2023-05-08T23:39:17.609Z,4.10
2023-05-08T23:41:45.860Z,4.10
2023-05-08T23:44:14.198Z,4.10
2023-05-08T23:46:42.739Z,4.10
2023-05-08T23:49:11.411Z,4.00
2023-05-08T23:51:39.854Z,4.10
2023-05-08T23:54:08.279Z,4.10
2023-05-08T23:56:37.982Z,4.00
2023-05-08T23:59:06.512Z,4.00
